Time;durP1;ratioP1;P1;durP2;ratioP2;P2;SDS_P1;SDS_P2;PMS_P1;PMS_P2;Temp;Humidity;BMP_temperature;BMP_pressure;BME280_temperature;BME280_humidity;BME280_pressure;Samples;Min_cycle;Max_cycle;Signal;HPM_P1;HPM_P2
2023/01/18 00:01:34;;;;;;;4.90;1.58;;;-0.40;99.90;;;;;;4192283;28;20049;-82
2023/01/18 00:03:41;;;;;;;4.10;1.95;;;0.30;99.90;;;;;;4208738;28;20607;-82
2023/01/18 00:05:43;;;;;;;4.30;2.10;;;0.20;99.90;;;;;;4209812;28;20060;-82
2023/01/18 00:07:44;;;;;;;4.57;2.17;;;0.20;99.90;;;;;;4210193;28;20046;-82
2023/01/18 00:09:47;;;;;;;3.42;1.70;;;1.40;99.90;;;;;;4192695;28;20041;-82
2023/01/18 00:11:50;;;;;;;7.57;2.17;;;0.00;99.90;;;;;;4210157;28;20116;-81
2023/01/18 00:13:57;;;;;;;4.55;1.92;;;0.00;99.90;;;;;;4192442;28;20049;-81
2023/01/18 00:16:31;;;;;;;4.63;2.15;;;1.00;99.90;;;;;;4208927;28;20041;-82
2023/01/18 00:18:36;;;;;;;7.95;2.53;;;-1.00;99.90;;;;;;4202093;28;20086;-82
2023/01/18 00:20:38;;;;;;;7.25;2.28;;;0.20;99.90;;;;;;4192628;28;20060;-82
2023/01/18 00:22:41;;;;;;;10.13;2.75;;;0.10;99.90;;;;;;4208891;28;20045;-81
2023/01/18 00:24:44;;;;;;;4.50;2.15;;;0.10;99.90;;;;;;4209127;28;20086;-82
2023/01/18 00:26:51;;;;;;;5.53;2.05;;;-1.30;99.90;;;;;;4191057;28;20052;-81
2023/01/18 00:28:56;;;;;;;4.55;2.50;;;0.20;99.90;;;;;;4207869;28;20052;-81
2023/01/18 00:30:59;;;;;;;8.07;1.98;;;-1.40;99.90;;;;;;4192001;28;20044;-81
2023/01/18 00:33:00;;;;;;;4.90;1.92;;;0.10;99.90;;;;;;4209561;28;20120;-81
2023/01/18 00:35:06;;;;;;;5.18;2.53;;;0.30;99.90;;;;;;4208756;28;20045;-81
2023/01/18 00:37:08;;;;;;;6.40;1.95;;;0.10;99.90;;;;;;4208384;28;20576;-82
2023/01/18 00:39:11;;;;;;;3.20;1.85;;;0.30;99.90;;;;;;4191799;28;20125;-82
2023/01/18 00:41:13;;;;;;;3.50;2.33;;;1.10;99.90;;;;;;4208948;28;20055;-81
2023/01/18 00:45:36;;;;;;;5.40;2.15;;;0.30;99.90;;;;;;4207392;28;20052;-82
2023/01/18 00:47:39;;;;;;;5.10;2.08;;;0.20;99.90;;;;;;4191305;28;20053;-82
2023/01/18 00:49:48;;;;;;;4.07;1.95;;;-0.50;99.90;;;;;;4213110;28;20047;-82
2023/01/18 00:51:54;;;;;;;4.90;2.70;;;0.20;99.90;;;;;;4195085;28;20075;-82
2023/01/18 00:54:04;;;;;;;3.35;1.80;;;0.10;99.90;;;;;;4212590;28;20350;-82
2023/01/18 00:56:10;;;;;;;6.40;2.13;;;0.80;99.90;;;;;;4195269;28;20053;-82
2023/01/18 00:58:13;;;;;;;3.10;1.95;;;1.00;99.90;;;;;;4212398;28;20040;-82
2023/01/18 01:00:14;;;;;;;3.53;2.20;;;0.40;99.90;;;;;;4211810;28;20072;-82
2023/01/18 01:02:16;;;;;;;3.78;2.08;;;1.80;99.90;;;;;;4194742;28;20077;-82
2023/01/18 01:06:49;;;;;;;2.38;1.55;;;0.20;99.90;;;;;;4212492;28;20067;-82
2023/01/18 01:08:56;;;;;;;5.95;2.25;;;-0.10;99.90;;;;;;4212518;28;20404;-81
2023/01/18 01:11:09;;;;;;;5.40;2.10;;;0.20;99.90;;;;;;4210093;28;20045;-82
2023/01/18 01:27:27;;;;;;;6.05;2.40;;;-0.10;99.90;;;;;;4211429;28;20234;-83
2023/01/18 01:29:36;;;;;;;7.32;2.67;;;-1.10;99.90;;;;;;4193534;28;20049;-82
2023/01/18 01:31:38;;;;;;;6.20;1.85;;;0.00;99.90;;;;;;4211326;28;20044;-82
2023/01/18 01:33:40;;;;;;;5.10;2.42;;;1.90;99.90;;;;;;4209816;28;20116;-82
2023/01/18 01:35:43;;;;;;;5.53;2.30;;;-0.10;99.90;;;;;;4193041;28;20083;-82
2023/01/18 01:37:45;;;;;;;4.68;2.40;;;0.70;99.90;;;;;;4210836;28;20047;-82
2023/01/18 01:39:47;;;;;;;5.40;2.45;;;0.40;99.90;;;;;;4193682;28;20120;-82
2023/01/18 01:41:50;;;;;;;4.55;2.17;;;0.30;99.90;;;;;;4209354;28;20040;-82
2023/01/18 01:44:18;;;;;;;5.10;2.20;;;-0.20;99.90;;;;;;4210656;28;20063;-82
2023/01/18 01:46:58;;;;;;;14.00;2.80;;;0.10;99.90;;;;;;4189212;28;20067;-82
2023/01/18 01:49:13;;;;;;;5.72;1.98;;;-0.30;99.90;;;;;;4212137;28;20040;-82
2023/01/18 01:51:20;;;;;;;7.18;2.38;;;-1.20;99.90;;;;;;4195048;28;20052;-82
2023/01/18 01:53:22;;;;;;;4.13;2.03;;;-0.20;99.90;;;;;;4195453;28;20041;-82
2023/01/18 01:55:31;;;;;;;4.28;2.15;;;2.00;99.90;;;;;;4212706;28;20052;-82
2023/01/18 01:57:46;;;;;;;4.82;2.55;;;-0.10;99.90;;;;;;4213451;28;20508;-81
2023/01/18 02:00:13;;;;;;;6.90;2.30;;;0.30;99.90;;;;;;4212353;28;20048;-81
2023/01/18 02:02:20;;;;;;;7.75;2.47;;;-0.30;99.90;;;;;;4203712;28;20072;-81
2023/01/18 02:04:22;;;;;;;5.63;2.15;;;-0.30;99.90;;;;;;4211154;28;20607;-81
2023/01/18 02:06:31;;;;;;;4.00;2.00;;;-0.20;99.90;;;;;;4211850;28;20605;-81
2023/01/18 02:08:33;;;;;;;5.97;2.05;;;-0.20;99.90;;;;;;4210404;28;20060;-81
2023/01/18 02:10:37;;;;;;;8.73;2.55;;;-0.20;99.90;;;;;;4211474;28;20049;-81
2023/01/18 02:12:41;;;;;;;7.65;3.67;;;-0.30;99.90;;;;;;4210402;28;20049;-81
2023/01/18 02:14:43;;;;;;;7.50;2.40;;;-0.40;99.90;;;;;;4194215;28;20056;-81
2023/01/18 02:17:14;;;;;;;5.28;2.03;;;-0.30;99.90;;;;;;4212246;28;20055;-81
2023/01/18 02:19:30;;;;;;;5.40;1.90;;;-0.30;99.90;;;;;;4212554;28;20051;-81
2023/01/18 02:21:46;;;;;;;4.20;1.80;;;-1.60;99.90;;;;;;4211130;28;20166;-81
2023/01/18 02:24:20;;;;;;;10.75;2.50;;;2.20;99.90;;;;;;4210471;28;20052;-81
2023/01/18 02:26:30;;;;;;;5.10;2.15;;;-0.30;99.90;;;;;;4210522;28;20048;-81
2023/01/18 02:28:39;;;;;;;3.53;2.20;;;-0.20;99.90;;;;;;4195251;28;20045;-81
2023/01/18 02:31:14;;;;;;;8.40;2.40;;;-0.20;99.90;;;;;;4194326;28;20457;-81
2023/01/18 02:33:31;;;;;;;6.68;3.03;;;-0.20;99.90;;;;;;4193796;28;20091;-81
2023/01/18 02:35:53;;;;;;;3.50;2.67;;;-0.30;99.90;;;;;;4189723;28;20053;-81
2023/01/18 02:38:18;;;;;;;6.35;2.10;;;-0.20;99.90;;;;;;4193330;28;20110;-81
2023/01/18 02:40:24;;;;;;;6.70;2.20;;;-0.20;99.90;;;;;;4194249;28;20098;-81
2023/01/18 02:47:11;;;;;;;4.32;1.90;;;0.40;99.90;;;;;;4211977;28;20048;-81
2023/01/18 02:49:20;;;;;;;4.65;2.03;;;0.10;99.90;;;;;;4211595;28;20040;-82
2023/01/18 02:51:22;;;;;;;3.10;1.83;;;-0.20;99.90;;;;;;4210414;28;20418;-82
2023/01/18 02:53:35;;;;;;;3.65;2.25;;;-0.10;99.90;;;;;;4210549;28;20079;-82
2023/01/18 02:55:53;;;;;;;4.03;2.08;;;-0.20;99.90;;;;;;4210919;28;20108;-82
2023/01/18 02:58:01;;;;;;;4.78;2.78;;;0.10;99.90;;;;;;4194118;28;20045;-82
2023/01/18 03:00:05;;;;;;;5.10;2.40;;;-0.20;99.90;;;;;;4211466;28;20048;-82
2023/01/18 03:02:15;;;;;;;3.92;1.95;;;0.50;99.90;;;;;;4211401;28;20064;-82
2023/01/18 03:04:24;;;;;;;3.63;2.17;;;0.10;99.90;;;;;;4193464;28;20051;-82
2023/01/18 03:06:28;;;;;;;5.03;2.10;;;-0.20;99.90;;;;;;4193374;28;20103;-82
2023/01/18 03:08:44;;;;;;;4.22;2.22;;;-0.20;99.90;;;;;;4199976;28;20084;-82
2023/01/18 03:10:59;;;;;;;6.18;2.08;;;-0.30;99.90;;;;;;4194119;28;20105;-82
2023/01/18 03:13:12;;;;;;;8.48;2.78;;;-0.20;99.90;;;;;;4193704;28;20056;-82
2023/01/18 03:15:21;;;;;;;6.53;2.17;;;0.10;99.90;;;;;;4176983;28;20513;-82
2023/01/18 03:17:41;;;;;;;4.07;2.05;;;-0.30;99.90;;;;;;4193077;28;20049;-82
2023/01/18 03:20:07;;;;;;;4.60;2.50;;;-0.40;99.90;;;;;;4192981;28;20155;-82
2023/01/18 03:22:10;;;;;;;4.20;2.50;;;-0.20;99.90;;;;;;4192135;28;20150;-82
2023/01/18 03:24:15;;;;;;;11.95;2.40;;;0.50;99.90;;;;;;4193847;28;20037;-82
2023/01/18 03:26:19;;;;;;;5.28;2.53;;;-0.30;99.90;;;;;;4192330;28;20080;-82
2023/01/18 03:35:41;;;;;;;8.30;2.53;;;-0.30;99.90;;;;;;4194623;28;20047;-82
2023/01/18 03:37:45;;;;;;;5.05;2.17;;;-1.10;99.90;;;;;;4193376;28;20124;-82
2023/01/18 03:39:56;;;;;;;5.10;2.33;;;1.30;99.90;;;;;;4177301;28;20050;-82
2023/01/18 03:42:06;;;;;;;4.50;2.25;;;-0.30;99.90;;;;;;4193890;28;20041;-82
2023/01/18 03:44:21;;;;;;;5.95;2.47;;;-0.20;99.90;;;;;;4193351;28;20048;-82
2023/01/18 03:46:31;;;;;;;4.90;2.50;;;-0.20;99.90;;;;;;4192212;28;20295;-82
2023/01/18 03:48:37;;;;;;;7.15;2.40;;;-0.30;99.90;;;;;;4193206;28;20053;-82
2023/01/18 03:50:50;;;;;;;7.25;2.78;;;2.00;99.90;;;;;;4194175;28;20428;-82
2023/01/18 03:52:57;;;;;;;6.25;2.45;;;-0.30;99.90;;;;;;4176047;28;20041;-82
2023/01/18 03:55:08;;;;;;;5.82;2.40;;;-0.40;99.90;;;;;;4175639;28;20064;-82
2023/01/18 03:57:36;;;;;;;6.13;2.42;;;-0.30;99.90;;;;;;4192915;28;20049;-82
2023/01/18 03:59:39;;;;;;;5.95;2.55;;;-0.40;99.90;;;;;;4194359;28;20045;-82
2023/01/18 04:01:48;;;;;;;4.72;2.75;;;-0.30;99.90;;;;;;4192477;28;20425;-82
2023/01/18 04:03:52;;;;;;;;;;;-1.00;99.90;;;;;;4176286;28;20115;-82
2023/01/18 04:05:53;;;;;;;10.85;2.88;;;-0.20;99.90;;;;;;4194196;28;20066;-82
2023/01/18 04:07:55;;;;;;;4.90;2.30;;;-0.30;99.90;;;;;;4208987;28;20037;-82
2023/01/18 04:09:58;;;;;;;6.28;2.92;;;1.60;99.90;;;;;;4209412;28;20060;-82
2023/01/18 04:12:01;;;;;;;5.10;2.63;;;-0.60;99.90;;;;;;4210586;28;20055;-82
2023/01/18 04:14:03;;;;;;;7.32;2.75;;;0.90;99.90;;;;;;4209064;28;20056;-81
2023/01/18 04:16:05;;;;;;;7.05;2.40;;;-0.40;99.90;;;;;;4208579;28;20048;-82
2023/01/18 04:18:06;;;;;;;5.00;3.10;;;-0.60;99.90;;;;;;4209150;28;20052;-82
2023/01/18 04:20:07;;;;;;;9.65;3.58;;;1.40;99.90;;;;;;4192137;28;20060;-82
2023/01/18 04:22:09;;;;;;;6.65;2.55;;;-0.40;99.90;;;;;;4208342;28;20047;-81
2023/01/18 04:24:11;;;;;;;6.53;3.42;;;-2.30;99.90;;;;;;4209198;28;20048;-81
2023/01/18 04:26:19;;;;;;;6.40;3.00;;;-0.10;99.90;;;;;;4210093;28;20040;-81
2023/01/18 04:28:24;;;;;;;7.45;2.65;;;-0.20;99.90;;;;;;4192724;28;20100;-81
2023/01/18 04:30:26;;;;;;;5.97;2.63;;;0.00;99.90;;;;;;4210688;28;20048;-81
2023/01/18 04:32:29;;;;;;;4.40;2.50;;;-0.10;99.90;;;;;;4192492;28;20072;-81
2023/01/18 04:34:34;;;;;;;12.85;3.00;;;-0.40;99.90;;;;;;4208685;28;20045;-81
2023/01/18 04:36:43;;;;;;;7.47;3.13;;;-1.00;99.90;;;;;;4208925;28;20057;-81
2023/01/18 04:38:45;;;;;;;5.70;3.03;;;-0.20;99.90;;;;;;4208428;28;20048;-82
2023/01/18 04:40:47;;;;;;;5.20;2.95;;;0.00;99.90;;;;;;4208770;28;20043;-82
2023/01/18 04:42:53;;;;;;;8.77;3.78;;;-0.20;99.90;;;;;;4208366;28;20052;-82
2023/01/18 04:44:58;;;;;;;8.43;3.38;;;1.20;99.90;;;;;;4209500;28;20052;-81
2023/01/18 04:47:02;;;;;;;6.40;3.30;;;-0.30;99.90;;;;;;4192259;28;20053;-82
2023/01/18 04:49:05;;;;;;;5.72;3.13;;;-0.50;99.90;;;;;;4209287;28;20108;-82
2023/01/18 04:51:17;;;;;;;4.95;3.17;;;1.40;99.90;;;;;;4192005;28;20091;-81
2023/01/18 04:53:21;;;;;;;8.77;3.35;;;-0.30;99.90;;;;;;4209153;28;20053;-81
2023/01/18 04:55:27;;;;;;;5.80;3.22;;;-0.30;99.90;;;;;;4192014;28;20057;-82
2023/01/18 04:57:29;;;;;;;5.78;3.10;;;-0.40;99.90;;;;;;4209594;28;20113;-82
2023/01/18 04:59:32;;;;;;;6.35;3.20;;;-0.30;99.90;;;;;;4210023;28;20120;-81
2023/01/18 05:01:34;;;;;;;8.60;3.85;;;-0.50;99.90;;;;;;4209206;28;20037;-82
2023/01/18 05:03:37;;;;;;;7.53;3.38;;;0.80;99.90;;;;;;4208950;28;20065;-82
2023/01/18 05:05:40;;;;;;;4.82;3.13;;;-0.40;99.90;;;;;;4208730;28;20055;-82
2023/01/18 05:07:41;;;;;;;10.50;4.45;;;-0.50;99.90;;;;;;4209494;28;20582;-82
2023/01/18 05:09:45;;;;;;;8.50;3.45;;;-1.30;99.90;;;;;;4208445;28;20044;-82
2023/01/18 05:11:46;;;;;;;7.15;3.60;;;-0.50;99.90;;;;;;4209503;28;20481;-81
2023/01/18 05:13:48;;;;;;;14.52;4.53;;;1.60;99.90;;;;;;4209695;28;20121;-82
2023/01/18 05:15:54;;;;;;;6.47;3.22;;;0.90;99.90;;;;;;4208452;28;20048;-82
2023/01/18 05:18:01;;;;;;;8.00;4.13;;;-0.30;99.90;;;;;;4209054;28;20485;-82
2023/01/18 05:20:07;;;;;;;20.10;4.22;;;0.90;99.90;;;;;;4190971;28;20084;-82
2023/01/18 05:22:09;;;;;;;9.57;4.20;;;-0.50;99.90;;;;;;4210058;28;20045;-80
2023/01/18 05:24:18;;;;;;;7.82;3.45;;;1.00;99.90;;;;;;4209996;28;20040;-80
2023/01/18 05:26:22;;;;;;;8.02;4.47;;;-0.70;99.90;;;;;;4211559;28;20096;-80
2023/01/18 05:28:26;;;;;;;13.02;3.97;;;-0.70;99.90;;;;;;4194077;28;20045;-80
2023/01/18 05:30:28;;;;;;;6.50;3.70;;;-2.30;99.90;;;;;;4210517;28;20052;-81
2023/01/18 05:32:29;;;;;;;7.25;3.80;;;-0.70;99.90;;;;;;4209877;28;20048;-81
2023/01/18 05:34:32;;;;;;;11.35;4.07;;;-0.50;99.90;;;;;;4200295;28;20041;-81
2023/01/18 05:36:34;;;;;;;8.27;4.47;;;-0.70;99.90;;;;;;4198475;28;20045;-81
2023/01/18 05:38:36;;;;;;;9.82;4.35;;;-0.70;99.90;;;;;;4209515;28;20048;-81
2023/01/18 05:40:54;;;;;;;14.20;5.47;;;-0.70;99.90;;;;;;4214541;28;20074;-81
2023/01/18 05:42:57;;;;;;;7.95;4.22;;;-0.70;99.90;;;;;;4197652;28;20048;-81
2023/01/18 05:44:59;;;;;;;7.97;4.30;;;-0.60;99.90;;;;;;4197418;28;20044;-81
2023/01/18 05:47:12;;;;;;;9.75;3.97;;;0.50;99.90;;;;;;4197262;28;20083;-81
2023/01/18 05:49:28;;;;;;;8.85;4.22;;;-1.50;99.90;;;;;;4197436;28;20073;-81
2023/01/18 05:51:37;;;;;;;9.63;3.72;;;-0.40;99.90;;;;;;4214903;28;20105;-81
2023/01/18 05:53:40;;;;;;;7.85;4.03;;;-0.70;99.90;;;;;;4197397;28;20056;-81
2023/01/18 05:55:43;;;;;;;9.38;4.07;;;-0.40;99.90;;;;;;4215281;28;20067;-81
2023/01/18 05:57:52;;;;;;;11.02;4.63;;;-1.00;99.90;;;;;;4213471;28;20033;-80
2023/01/18 05:59:53;;;;;;;;;;;1.20;99.90;;;;;;4197545;28;20073;-80
2023/01/18 06:01:56;;;;;;;9.70;4.15;;;-0.40;99.90;;;;;;4189247;28;19944;-81
2023/01/18 06:03:57;;;;;;;10.52;4.05;;;0.00;99.90;;;;;;4196883;28;20063;-81
2023/01/18 06:05:58;;;;;;;7.70;4.18;;;-0.50;99.90;;;;;;4179988;28;20087;-81
2023/01/18 06:08:11;;;;;;;10.02;4.78;;;-0.40;99.90;;;;;;4197342;28;20049;-81
2023/01/18 06:10:22;;;;;;;10.70;4.28;;;0.50;99.90;;;;;;4196039;28;20096;-82
2023/01/18 06:12:25;;;;;;;10.27;4.15;;;-0.40;99.90;;;;;;4179607;28;20050;-81
2023/01/18 06:14:37;;;;;;;8.85;4.07;;;0.50;99.90;;;;;;4195519;28;20114;-82
2023/01/18 06:16:47;;;;;;;8.13;4.20;;;-0.50;99.90;;;;;;4179921;28;20492;-81
2023/01/18 06:18:59;;;;;;;7.60;4.20;;;-1.70;99.90;;;;;;4213371;28;20046;-81
2023/01/18 06:21:08;;;;;;;7.75;4.05;;;-0.40;99.90;;;;;;4197176;28;20049;-81
2023/01/18 06:23:17;;;;;;;10.35;3.92;;;-0.60;99.90;;;;;;4196390;28;20064;-80
2023/01/18 06:25:33;;;;;;;8.73;4.03;;;-0.50;99.90;;;;;;4180447;28;20041;-80
2023/01/18 06:27:42;;;;;;;6.32;3.50;;;-0.80;99.90;;;;;;4197300;28;20045;-80
2023/01/18 06:29:49;;;;;;;;;;;-0.10;99.90;;;;;;4197431;28;20189;-80
2023/01/18 06:32:00;;;;;;;8.95;4.15;;;-0.60;99.90;;;;;;4180284;28;20165;-79
2023/01/18 06:34:08;;;;;;;7.57;4.18;;;-0.10;99.90;;;;;;4196071;28;20506;-80
2023/01/18 06:36:13;;;;;;;10.18;3.95;;;-0.60;99.90;;;;;;4196857;28;20049;-80
2023/01/18 06:38:16;;;;;;;7.85;4.10;;;-0.40;99.90;;;;;;4179938;28;20053;-80
2023/01/18 06:40:23;;;;;;;11.55;4.03;;;-1.60;99.90;;;;;;4180510;28;20080;-80
2023/01/18 06:42:32;;;;;;;7.05;3.78;;;-0.40;99.90;;;;;;4212485;28;20108;-80
2023/01/18 06:44:48;;;;;;;10.25;4.35;;;1.80;99.90;;;;;;4197541;28;20041;-80
2023/01/18 06:46:55;;;;;;;9.93;3.78;;;0.50;99.90;;;;;;4196683;28;20079;-81
2023/01/18 06:48:58;;;;;;;7.00;4.07;;;0.60;99.90;;;;;;4195656;28;20057;-81
2023/01/18 06:51:11;;;;;;;8.05;4.13;;;-0.30;99.90;;;;;;4197051;28;20045;-81
2023/01/18 06:53:14;;;;;;;7.53;4.35;;;-0.30;99.90;;;;;;4179207;28;20200;-81
2023/01/18 06:55:15;;;;;;;9.52;4.55;;;-0.60;99.90;;;;;;4195534;28;20057;-81
2023/01/18 06:57:17;;;;;;;9.32;4.35;;;-0.40;99.90;;;;;;4195189;28;20071;-81
2023/01/18 06:59:20;;;;;;;8.05;3.85;;;-1.80;99.90;;;;;;4196932;28;20491;-81
2023/01/18 07:01:24;;;;;;;10.77;4.20;;;-0.30;99.90;;;;;;4196259;28;20091;-81
2023/01/18 07:03:27;;;;;;;11.45;4.57;;;-0.50;99.90;;;;;;4196461;28;20057;-81
2023/01/18 07:05:36;;;;;;;14.30;4.93;;;-0.70;99.90;;;;;;4178911;28;20149;-81
2023/01/18 07:07:38;;;;;;;10.05;4.55;;;-0.50;99.90;;;;;;4196849;28;20045;-81
2023/01/18 07:09:40;;;;;;;7.53;3.85;;;-0.40;99.90;;;;;;4196869;28;20101;-81
2023/01/18 07:11:44;;;;;;;10.15;4.82;;;-0.80;99.90;;;;;;4180469;28;20081;-80
2023/01/18 07:13:48;;;;;;;11.23;4.57;;;-1.10;99.90;;;;;;4196489;28;20049;-81
2023/01/18 07:16:00;;;;;;;7.60;4.82;;;-2.10;99.90;;;;;;4198805;28;20075;-81
2023/01/18 07:18:05;;;;;;;12.10;5.57;;;-1.60;99.90;;;;;;4196529;28;20049;-82
2023/01/18 07:20:07;;;;;;;11.05;4.65;;;-0.60;99.90;;;;;;4182807;28;20038;-83
2023/01/18 07:22:11;;;;;;;6.82;4.07;;;-0.50;99.90;;;;;;4195446;28;20052;-83
2023/01/18 07:24:21;;;;;;;9.25;3.80;;;-0.50;99.90;;;;;;4188261;28;20087;-82
2023/01/18 07:26:28;;;;;;;10.80;5.10;;;-0.60;99.90;;;;;;4205676;28;20113;-82
2023/01/18 07:28:39;;;;;;;11.00;4.70;;;1.20;99.90;;;;;;4211559;28;20068;-82
2023/01/18 07:30:42;;;;;;;10.30;4.60;;;0.30;99.90;;;;;;4194642;28;20048;-82
2023/01/18 07:32:53;;;;;;;13.63;5.32;;;-0.50;99.90;;;;;;4193622;28;20041;-82
2023/01/18 07:35:04;;;;;;;10.20;4.80;;;-0.70;99.90;;;;;;4207371;28;20045;-82
2023/01/18 07:37:07;;;;;;;10.10;5.38;;;-0.70;99.90;;;;;;4194107;28;20437;-83
2023/01/18 07:39:09;;;;;;;7.70;4.32;;;-1.80;99.90;;;;;;4183387;28;20080;-83
2023/01/18 07:41:15;;;;;;;8.10;4.43;;;-0.60;99.90;;;;;;4195446;28;20041;-83
2023/01/18 07:43:23;;;;;;;12.57;5.43;;;-0.60;99.90;;;;;;4193699;28;20083;-83
2023/01/18 07:45:24;;;;;;;13.85;4.32;;;-0.40;99.90;;;;;;4193181;28;20098;-82
2023/01/18 07:47:31;;;;;;;10.43;4.60;;;-0.60;99.90;;;;;;4194022;28;20072;-82
2023/01/18 07:49:33;;;;;;;9.05;3.58;;;-2.00;99.90;;;;;;4176346;28;20054;-82
2023/01/18 07:51:35;;;;;;;9.40;4.15;;;0.40;99.90;;;;;;4192119;28;20525;-82
2023/01/18 07:53:37;;;;;;;8.20;4.43;;;1.40;99.90;;;;;;4175621;28;20143;-83
2023/01/18 07:55:41;;;;;;;10.13;4.63;;;-1.90;99.90;;;;;;4174709;28;20077;-83
2023/01/18 07:57:43;;;;;;;9.65;4.80;;;-0.50;99.90;;;;;;4191673;28;20099;-83
2023/01/18 07:59:46;;;;;;;8.43;4.47;;;-0.50;99.90;;;;;;4174844;28;20054;-82
2023/01/18 08:01:48;;;;;;;9.55;4.90;;;1.60;99.90;;;;;;4175278;28;20041;-82
2023/01/18 08:03:58;;;;;;;9.38;4.70;;;-0.40;99.90;;;;;;4191703;28;20095;-84
2023/01/18 08:06:05;;;;;;;9.73;4.53;;;-0.30;99.90;;;;;;4192825;28;20123;-83
2023/01/18 08:08:15;;;;;;;8.30;3.85;;;-2.20;99.90;;;;;;4209760;28;20078;-83
2023/01/18 08:10:18;;;;;;;12.00;4.60;;;1.10;99.90;;;;;;4192048;28;20080;-82
2023/01/18 08:12:26;;;;;;;8.18;4.25;;;0.40;99.90;;;;;;4208946;28;20044;-81
2023/01/18 08:14:27;;;;;;;9.25;4.38;;;-0.30;99.90;;;;;;4203454;28;20485;-82
2023/01/18 08:16:34;;;;;;;8.60;4.90;;;-0.30;99.90;;;;;;4205623;28;20052;-83
2023/01/18 08:18:36;;;;;;;10.25;4.20;;;-1.80;99.90;;;;;;4193706;28;20045;-82
2023/01/18 08:20:39;;;;;;;7.05;3.83;;;0.90;99.90;;;;;;4210621;28;20041;-82
2023/01/18 08:22:41;;;;;;;12.15;4.28;;;-1.20;99.90;;;;;;4195611;28;20049;-82
2023/01/18 08:24:43;;;;;;;8.50;3.53;;;-2.10;99.90;;;;;;4192893;28;20103;-82
2023/01/18 08:26:46;;;;;;;10.15;4.50;;;-0.30;99.90;;;;;;4192828;28;20041;-82
2023/01/18 08:28:52;;;;;;;10.48;3.83;;;-0.30;99.90;;;;;;4191632;28;20052;-83
2023/01/18 08:31:10;;;;;;;7.32;3.83;;;1.50;99.90;;;;;;4191201;28;20052;-82
2023/01/18 08:33:12;;;;;;;12.35;4.00;;;0.80;99.90;;;;;;4192404;28;20116;-82
2023/01/18 08:35:15;;;;;;;8.00;3.83;;;-0.30;99.90;;;;;;4173805;28;20060;-82
2023/01/18 08:37:17;;;;;;;8.85;4.28;;;0.20;99.90;;;;;;4190565;28;20498;-82
2023/01/18 08:39:20;;;;;;;10.00;4.00;;;-1.20;99.90;;;;;;4191247;28;20089;-82
2023/01/18 08:41:29;;;;;;;10.95;4.82;;;0.20;99.90;;;;;;4191261;28;20053;-82
2023/01/18 08:43:31;;;;;;;11.55;3.67;;;-0.90;99.90;;;;;;4190167;28;20049;-82
2023/01/18 08:45:34;;;;;;;8.70;3.85;;;0.20;99.90;;;;;;4192629;28;20053;-82
2023/01/18 08:47:36;;;;;;;5.82;3.47;;;0.40;99.90;;;;;;4191583;28;20049;-82
2023/01/18 08:49:39;;;;;;;10.32;3.92;;;1.80;99.90;;;;;;4191116;28;20041;-82
2023/01/18 08:51:39;;;;;;;6.43;4.10;;;0.80;99.90;;;;;;4188363;28;20097;-82
2023/01/18 08:53:43;;;;;;;5.45;3.05;;;2.60;99.90;;;;;;4188971;28;20037;-81
2023/01/18 08:55:44;;;;;;;9.15;3.25;;;0.50;99.90;;;;;;4186923;28;20049;-81
2023/01/18 08:57:56;;;;;;;8.90;3.45;;;2.60;99.90;;;;;;4169610;28;20081;-82
2023/01/18 08:59:58;;;;;;;6.55;3.25;;;1.80;99.90;;;;;;4170350;28;20405;-81
2023/01/18 09:02:00;;;;;;;6.90;3.40;;;3.60;99.90;;;;;;4188120;28;20045;-82
2023/01/18 09:04:07;;;;;;;7.10;2.90;;;2.10;99.90;;;;;;4186258;28;20060;-82
2023/01/18 09:06:10;;;;;;;4.85;2.83;;;1.90;99.90;;;;;;4168856;28;20080;-82
2023/01/18 09:08:11;;;;;;;7.80;2.78;;;3.80;99.90;;;;;;4186319;28;20079;-82
2023/01/18 09:10:13;;;;;;;6.85;3.15;;;2.50;99.90;;;;;;4191520;28;20041;-82
2023/01/18 09:12:15;;;;;;;15.27;4.05;;;2.80;99.90;;;;;;4195105;28;20040;-81
2023/01/18 09:14:16;;;;;;;6.60;3.47;;;2.70;99.90;;;;;;4193008;28;20048;-81
2023/01/18 09:16:17;;;;;;;4.70;2.78;;;3.10;99.90;;;;;;4187757;28;20037;-81
2023/01/18 09:18:18;;;;;;;8.18;3.58;;;3.90;99.90;;;;;;4171998;28;20110;-81
2023/01/18 09:20:20;;;;;;;6.95;3.05;;;4.40;99.90;;;;;;4194421;28;20087;-81
2023/01/18 09:22:23;;;;;;;5.15;2.95;;;4.80;99.90;;;;;;4185658;28;20104;-81
2023/01/18 09:24:24;;;;;;;5.55;2.80;;;5.10;99.90;;;;;;4185817;28;20041;-81
2023/01/18 09:26:27;;;;;;;6.82;2.88;;;6.10;99.90;;;;;;4184786;28;20051;-82
2023/01/18 09:28:27;;;;;;;7.85;3.10;;;6.00;99.90;;;;;;4167581;28;20046;-81
2023/01/18 09:30:29;;;;;;;6.30;2.40;;;6.30;99.90;;;;;;4185104;28;20468;-85
2023/01/18 09:32:30;;;;;;;4.85;2.15;;;6.40;99.90;;;;;;4196188;28;20048;-81
2023/01/18 09:34:30;;;;;;;7.30;2.95;;;6.70;99.90;;;;;;4182962;28;20509;-82
2023/01/18 09:36:31;;;;;;;6.78;3.33;;;5.60;99.90;;;;;;4200676;28;20110;-80
2023/01/18 09:38:32;;;;;;;4.88;2.60;;;7.10;99.90;;;;;;4200895;28;20404;-80
2023/01/18 09:40:43;;;;;;;7.55;2.92;;;7.20;99.90;;;;;;4200381;28;20702;-81
2023/01/18 09:42:46;;;;;;;4.95;3.22;;;7.40;99.90;;;;;;4201684;28;20558;-81
2023/01/18 09:44:51;;;;;;;5.20;2.20;;;7.40;99.90;;;;;;4199682;28;20051;-81
2023/01/18 09:47:01;;;;;;;5.13;2.97;;;7.30;99.90;;;;;;4200726;28;20041;-81
2023/01/18 09:49:05;;;;;;;5.55;2.63;;;7.50;99.90;;;;;;4200657;28;20118;-81
2023/01/18 09:51:21;;;;;;;6.82;3.55;;;7.70;99.90;;;;;;4199760;28;20131;-81
2023/01/18 09:54:01;;;;;;;4.40;2.50;;;8.10;99.90;;;;;;4199975;28;20494;-81
2023/01/18 09:56:10;;;;;;;6.32;3.08;;;8.20;99.90;;;;;;4182111;28;20072;-81
2023/01/18 09:58:33;;;;;;;9.40;2.60;;;8.10;99.90;;;;;;4199593;28;20400;-81
2023/01/18 10:00:41;;;;;;;9.65;3.35;;;8.20;99.90;;;;;;4200003;28;20181;-81
2023/01/18 10:02:45;;;;;;;4.97;2.47;;;8.00;99.90;;;;;;4199854;28;20040;-80
2023/01/18 10:04:53;;;;;;;5.55;2.30;;;7.40;99.90;;;;;;4199826;28;20044;-80
2023/01/18 10:06:57;;;;;;;12.10;3.17;;;7.20;99.90;;;;;;4199683;28;20059;-82
2023/01/18 10:09:09;;;;;;;8.23;3.05;;;6.90;99.90;;;;;;4199948;28;20047;-81
2023/01/18 10:11:43;;;;;;;6.55;2.65;;;6.60;99.90;;;;;;4199528;28;20048;-81
2023/01/18 10:13:44;;;;;;;7.90;3.58;;;6.30;99.90;;;;;;4199727;28;20044;-81
2023/01/18 10:15:45;;;;;;;6.13;2.50;;;6.00;99.90;;;;;;4199624;28;20135;-81
2023/01/18 10:17:50;;;;;;;6.82;3.00;;;5.70;99.90;;;;;;4198364;28;20056;-80
2023/01/18 10:19:51;;;;;;;8.27;3.00;;;5.50;99.90;;;;;;4199372;28;20044;-81
2023/01/18 10:22:23;;;;;;;5.00;2.80;;;5.40;99.90;;;;;;4199368;28;20084;-81
2023/01/18 10:24:33;;;;;;;8.50;2.50;;;5.50;99.90;;;;;;4199892;28;20048;-80
2023/01/18 10:26:37;;;;;;;7.72;2.78;;;5.60;99.90;;;;;;4199514;28;20453;-82
2023/01/18 10:28:49;;;;;;;6.57;3.33;;;5.70;99.90;;;;;;4199860;28;20090;-79
2023/01/18 10:31:02;;;;;;;8.27;3.17;;;5.60;99.90;;;;;;4199711;28;20044;-81
2023/01/18 10:33:18;;;;;;;5.68;2.30;;;5.60;99.90;;;;;;4199814;28;20090;-81
2023/01/18 10:35:35;;;;;;;4.82;2.58;;;5.60;99.90;;;;;;4199239;28;20044;-81
2023/01/18 10:37:44;;;;;;;4.85;2.67;;;6.10;99.90;;;;;;4198791;28;20117;-82
2023/01/18 10:40:06;;;;;;;8.77;3.83;;;5.60;99.90;;;;;;4199228;28;20485;-81
2023/01/18 10:42:33;;;;;;;3.78;2.50;;;5.60;99.90;;;;;;4198827;28;20801;-81
2023/01/18 10:44:34;;;;;;;3.88;2.28;;;5.50;99.90;;;;;;4196957;28;20132;-81
2023/01/18 10:46:35;;;;;;;4.93;2.10;;;5.60;99.90;;;;;;4199219;28;20254;-81
2023/01/18 10:48:37;;;;;;;10.02;2.50;;;5.60;99.90;;;;;;4199002;28;20508;-80
2023/01/18 10:50:45;;;;;;;5.93;2.67;;;5.60;99.90;;;;;;4198865;28;20048;-81
2023/01/18 10:52:48;;;;;;;5.82;2.83;;;5.60;99.90;;;;;;4197591;28;20041;-81
2023/01/18 10:55:13;;;;;;;5.15;3.03;;;5.50;99.90;;;;;;4198916;28;20059;-81
2023/01/18 10:57:42;;;;;;;7.78;2.80;;;5.50;99.90;;;;;;4198301;28;20496;-81
2023/01/18 10:59:43;;;;;;;;;;;5.70;99.90;;;;;;4197550;28;20032;-81
2023/01/18 11:01:55;;;;;;;6.63;2.80;;;5.70;99.90;;;;;;4197431;28;20019;-81
2023/01/18 11:04:07;;;;;;;6.18;3.22;;;5.80;99.90;;;;;;4198727;28;20052;-81
2023/01/18 11:06:09;;;;;;;4.45;2.28;;;5.80;99.90;;;;;;4197470;28;20052;-81
2023/01/18 11:08:24;;;;;;;7.00;2.40;;;5.20;99.90;;;;;;4198708;28;20400;-81
2023/01/18 11:10:27;;;;;;;5.78;2.35;;;5.90;99.90;;;;;;4198345;28;20405;-81
2023/01/18 11:12:40;;;;;;;5.72;2.47;;;6.30;99.90;;;;;;4198338;28;20045;-81
2023/01/18 11:14:41;;;;;;;5.70;2.60;;;6.10;99.90;;;;;;4198514;28;20049;-81
2023/01/18 11:17:02;;;;;;;4.82;2.38;;;6.20;99.90;;;;;;4198296;28;20067;-81
2023/01/18 11:19:14;;;;;;;4.25;2.45;;;6.20;99.90;;;;;;4198572;28;20123;-80
2023/01/18 11:21:15;;;;;;;7.82;2.80;;;6.20;99.90;;;;;;4198782;28;20048;-81
2023/01/18 11:23:20;;;;;;;5.88;2.92;;;6.20;99.90;;;;;;4197534;28;20098;-81
2023/01/18 11:25:21;;;;;;;5.43;3.22;;;6.20;99.90;;;;;;4198471;28;20044;-80
2023/01/18 11:27:23;;;;;;;7.60;2.53;;;6.30;99.90;;;;;;4198776;28;20099;-80
2023/01/18 11:29:44;;;;;;;13.48;3.08;;;6.20;99.90;;;;;;4198586;28;20044;-81
2023/01/18 11:31:47;;;;;;;7.15;2.67;;;6.20;99.90;;;;;;4198212;28;20098;-81
2023/01/18 11:33:49;;;;;;;8.85;3.55;;;6.50;99.90;;;;;;4198248;28;20040;-81
2023/01/18 11:35:59;;;;;;;12.98;2.60;;;6.40;99.90;;;;;;4197562;28;20510;-81